Swaledale, Iowa
Current Conditions -  °F | °C
As of 9:53 AM on Wednesday 28 Jan 2015 (Local Time) from KMCW Reporting Station
Moderate Fog Moderate Fog  
Wind Chill: -9°   Ceiling: 200
Heat Index: -2°   Visibility: 0.5mi
Dew Point: -2°   Wind: 18mph
Humidity: 96%   Direction: 140°SE
Pressure: 29.96"   Gusts: 30mph
Location:  42.98°N, 93.32°W
Report Text: KMCW 281553Z AUTO 14016G26KT 1/2SM FZFG VV002 M02/M02 A2996 RMK AO2 PK WND 14028/1502 SLP155 I1001 T10171022
Loading
Personal Weather Stations






























Interactive Weather Map New forecast layout! Learn more

10-Day Weather Forecast

Advertisements
Track Severe Weather on mobile